Wick, Iowa
Current Conditions -  °F | °C
As of 2:55 PM on Thursday 23 Oct 2014 (Local Time) from KI75 Reporting Station
Broken Clouds Broken Clouds  
Wind Chill: 18°   Ceiling: 700
Heat Index: 18°   Visibility: 10mi
Dew Point: 15°   Wind: 3mph
Humidity: 80%   Direction: 200°SSW
Pressure: 30.03"   Gusts: NA
Location:  41.2933°N, 93.7977°W
Report Text: KI75 231955Z AUTO 20003KT 10SM BKN007 BKN013 18/15 A3003 RMK AO2 P0001 T01830148
Loading
Personal Weather Stations






























Interactive Weather Map
Tropical Storm Tracking
New forecast layout! Learn more

10-Day Weather Forecast

Advertisements
Track Severe Weather on mobile